Time;durP1;ratioP1;P1;durP2;ratioP2;P2;SDS_P1;SDS_P2;PMS_P1;PMS_P2;Temp;Humidity;BMP_temperature;BMP_pressure;BME280_temperature;BME280_humidity;BME280_pressure;Samples;Min_cycle;Max_cycle;Signal;HPM_P1;HPM_P2
2023/06/08 00:00:00;;;;;;;;;9.25;9.25;;;;;;;;4956999;28;45390;-68
2023/06/08 00:02:25;;;;;;;;;10.75;9.50;;;;;;;;4957018;28;45386;-68
2023/06/08 00:04:52;;;;;;;;;10.25;9.50;;;;;;;;4957328;28;45393;-68
2023/06/08 00:07:18;;;;;;;;;10.75;10.50;;;;;;;;4956815;28;45433;-68
2023/06/08 00:09:44;;;;;;;;;10.50;9.75;;;;;;;;4956980;28;45393;-68
2023/06/08 00:12:10;;;;;;;;;11.00;9.50;;;;;;;;4940225;28;45382;-68
2023/06/08 00:14:36;;;;;;;;;14.25;12.75;;;;;;;;4948470;28;45398;-67
2023/06/08 00:17:04;;;;;;;;;12.00;10.00;;;;;;;;4956954;28;47300;-68
2023/06/08 00:19:30;;;;;;;;;9.75;9.75;;;;;;;;4956725;28;45492;-68
2023/06/08 00:21:56;;;;;;;;;8.25;8.25;;;;;;;;4956495;28;45377;-67
2023/06/08 00:24:21;;;;;;;;;10.00;10.00;;;;;;;;4955669;28;45383;-68
2023/06/08 00:26:47;;;;;;;;;10.00;10.00;;;;;;;;4956310;28;46980;-68
2023/06/08 00:29:12;;;;;;;;;10.75;10.25;;;;;;;;4956774;28;45362;-68
2023/06/08 00:31:40;;;;;;;;;9.25;9.25;;;;;;;;4956867;28;45443;-68
2023/06/08 00:34:05;;;;;;;;;8.75;8.75;;;;;;;;4956708;28;45524;-68
2023/06/08 00:36:31;;;;;;;;;9.25;9.25;;;;;;;;4956681;28;46039;-68
2023/06/08 00:38:56;;;;;;;;;12.00;11.50;;;;;;;;4955808;28;45439;-68
2023/06/08 00:41:21;;;;;;;;;9.50;8.25;;;;;;;;4956482;28;45408;-68
2023/06/08 00:43:46;;;;;;;;;7.00;7.00;;;;;;;;4956656;28;45466;-68
2023/06/08 00:46:16;;;;;;;;;10.00;10.00;;;;;;;;4956529;28;45369;-68
2023/06/08 00:48:41;;;;;;;;;10.00;9.50;;;;;;;;4956383;28;45362;-68
2023/06/08 00:51:06;;;;;;;;;10.00;9.50;;;;;;;;4956322;28;45640;-68
2023/06/08 00:53:32;;;;;;;;;12.50;11.25;;;;;;;;4955221;28;45398;-68
2023/06/08 00:55:57;;;;;;;;;13.50;12.00;;;;;;;;4956330;28;46094;-68
2023/06/08 00:58:23;;;;;;;;;9.25;9.25;;;;;;;;4956539;28;45272;-68
2023/06/08 01:00:48;;;;;;;;;10.50;9.75;;;;;;;;4956326;28;45310;-68
2023/06/08 01:03:14;;;;;;;;;8.00;7.25;;;;;;;;4954970;28;45584;-68
2023/06/08 01:05:43;;;;;;;;;10.50;10.50;;;;;;;;4956320;28;46371;-68
2023/06/08 01:08:17;;;;;;;;;12.25;11.50;;;;;;;;4956169;28;45413;-68
2023/06/08 01:10:46;;;;;;;;;11.75;11.75;;;;;;;;4956385;28;45467;-68
2023/06/08 01:13:25;;;;;;;;;15.75;15.50;;;;;;;;4955696;28;45524;-69
2023/06/08 01:15:56;;;;;;;;;10.00;10.00;;;;;;;;4955748;28;46283;-68
2023/06/08 01:18:23;;;;;;;;;12.50;12.25;;;;;;;;4955371;28;45334;-68
2023/06/08 01:20:51;;;;;;;;;10.50;10.00;;;;;;;;4956120;28;45389;-68
2023/06/08 01:23:37;;;;;;;;;13.25;13.25;;;;;;;;4955466;28;45335;-68
2023/06/08 01:26:03;;;;;;;;;11.00;10.00;;;;;;;;4951899;28;45461;-68
2023/06/08 01:28:30;;;;;;;;;11.75;11.25;;;;;;;;4955291;28;45396;-68
2023/06/08 01:30:56;;;;;;;;;12.25;11.75;;;;;;;;4955689;28;45384;-68
2023/06/08 01:33:23;;;;;;;;;13.00;11.75;;;;;;;;4955411;28;45355;-68
2023/06/08 01:36:05;;;;;;;;;14.00;13.50;;;;;;;;4960842;28;45393;-68
2023/06/08 01:38:40;;;;;;;;;12.50;12.50;;;;;;;;4960846;28;45397;-68
2023/06/08 01:41:11;;;;;;;;;14.00;14.00;;;;;;;;4962355;28;45456;-68
2023/06/08 01:43:37;;;;;;;;;14.00;11.25;;;;;;;;4961464;28;45531;-68
2023/06/08 01:46:04;;;;;;;;;10.50;10.50;;;;;;;;4962070;28;45665;-68
2023/06/08 01:48:31;;;;;;;;;11.00;10.00;;;;;;;;4961765;28;45389;-68
2023/06/08 01:50:56;;;;;;;;;18.00;13.00;;;;;;;;4961106;28;45426;-68
2023/06/08 01:53:22;;;;;;;;;11.75;11.50;;;;;;;;4961749;28;45473;-68
2023/06/08 01:55:50;;;;;;;;;11.50;11.50;;;;;;;;4962077;28;46351;-68
2023/06/08 01:58:15;;;;;;;;;12.00;10.50;;;;;;;;4962319;28;45539;-68
2023/06/08 02:00:41;;;;;;;;;9.00;8.50;;;;;;;;4962290;28;45411;-68
2023/06/08 02:03:06;;;;;;;;;15.25;11.00;;;;;;;;4961701;28;45446;-68
2023/06/08 02:05:31;;;;;;;;;16.00;16.00;;;;;;;;4962004;28;46322;-68
2023/06/08 02:07:56;;;;;;;;;15.00;12.25;;;;;;;;4961757;28;45416;-68
2023/06/08 02:10:23;;;;;;;;;11.50;10.50;;;;;;;;4959826;28;45413;-68
2023/06/08 02:12:48;;;;;;;;;11.75;11.25;;;;;;;;4946633;28;45532;-68
2023/06/08 02:15:13;;;;;;;;;14.75;13.00;;;;;;;;4979949;28;47325;-68
2023/06/08 02:17:38;;;;;;;;;13.00;11.50;;;;;;;;4980174;28;45406;-68
2023/06/08 02:20:08;;;;;;;;;17.50;13.25;;;;;;;;4980425;28;45483;-68
2023/06/08 02:22:33;;;;;;;;;15.25;13.75;;;;;;;;4981119;28;45521;-68
2023/06/08 02:24:59;;;;;;;;;16.50;16.50;;;;;;;;4981057;28;45461;-68
2023/06/08 02:27:24;;;;;;;;;10.75;10.75;;;;;;;;4980958;28;45183;-68
2023/06/08 02:29:50;;;;;;;;;13.00;12.00;;;;;;;;4968998;28;45346;-68
2023/06/08 02:32:15;;;;;;;;;12.25;12.25;;;;;;;;4942157;28;45295;-68
2023/06/08 02:34:41;;;;;;;;;11.00;11.00;;;;;;;;4942323;28;46283;-68
2023/06/08 02:37:06;;;;;;;;;17.25;13.25;;;;;;;;4942057;28;45438;-68
2023/06/08 02:39:32;;;;;;;;;11.50;9.25;;;;;;;;4942507;28;45510;-68
2023/06/08 02:41:57;;;;;;;;;15.50;14.50;;;;;;;;4948918;28;45405;-68
2023/06/08 02:44:22;;;;;;;;;13.25;13.25;;;;;;;;4961505;28;45422;-68
2023/06/08 02:46:47;;;;;;;;;15.50;14.25;;;;;;;;4958137;28;45393;-68
2023/06/08 02:49:13;;;;;;;;;14.50;13.00;;;;;;;;4958322;28;45373;-68
2023/06/08 02:51:38;;;;;;;;;12.75;12.75;;;;;;;;4958526;28;45467;-68
2023/06/08 02:54:03;;;;;;;;;15.00;15.00;;;;;;;;4958118;28;46218;-67
2023/06/08 02:56:28;;;;;;;;;13.75;12.75;;;;;;;;4958032;28;45438;-67
2023/06/08 02:58:54;;;;;;;;;12.00;12.00;;;;;;;;4958243;28;45458;-66
2023/06/08 03:01:20;;;;;;;;;11.25;11.25;;;;;;;;4940719;28;45536;-65
2023/06/08 03:03:46;;;;;;;;;10.00;10.00;;;;;;;;4968842;28;45440;-65
2023/06/08 03:06:12;;;;;;;;;4.50;3.50;;;;;;;;4968897;28;45369;-65
2023/06/08 03:08:39;;;;;;;;;12.25;11.25;;;;;;;;4957786;28;45510;-65
2023/06/08 03:11:04;;;;;;;;;15.00;15.00;;;;;;;;4957034;28;46063;-66
2023/06/08 03:13:30;;;;;;;;;15.00;13.50;;;;;;;;4956232;28;45953;-66
2023/06/08 03:15:55;;;;;;;;;11.50;10.00;;;;;;;;4957583;28;45429;-66
2023/06/08 03:18:22;;;;;;;;;17.50;15.00;;;;;;;;4958081;28;45512;-66
2023/06/08 03:20:47;;;;;;;;;15.50;15.50;;;;;;;;4958092;28;45389;-66
2023/06/08 03:23:13;;;;;;;;;17.00;14.00;;;;;;;;4957363;28;46105;-66
2023/06/08 03:25:38;;;;;;;;;19.00;12.25;;;;;;;;4950730;28;45552;-66
2023/06/08 03:28:04;;;;;;;;;17.00;16.50;;;;;;;;4957632;28;45479;-66
2023/06/08 03:30:30;;;;;;;;;15.50;15.25;;;;;;;;4957213;28;45330;-66
2023/06/08 03:32:55;;;;;;;;;14.50;14.50;;;;;;;;4957287;28;47020;-65
2023/06/08 03:35:21;;;;;;;;;14.75;13.75;;;;;;;;4957399;28;45394;-65
2023/06/08 03:37:46;;;;;;;;;15.50;15.25;;;;;;;;4957396;28;45323;-65
2023/06/08 03:40:11;;;;;;;;;19.50;16.25;;;;;;;;4957875;28;45268;-66
2023/06/08 03:42:37;;;;;;;;;15.75;14.50;;;;;;;;4957225;28;45355;-66
2023/06/08 03:45:02;;;;;;;;;15.75;15.75;;;;;;;;4957560;28;45397;-65
2023/06/08 03:47:27;;;;;;;;;17.25;16.00;;;;;;;;4941181;28;45340;-65
2023/06/08 03:49:52;;;;;;;;;13.50;13.00;;;;;;;;4944118;28;45545;-65
2023/06/08 03:52:18;;;;;;;;;18.75;16.75;;;;;;;;4956932;28;46250;-65
2023/06/08 03:54:43;;;;;;;;;17.00;15.75;;;;;;;;4957306;28;45359;-64
2023/06/08 03:57:12;;;;;;;;;14.00;14.00;;;;;;;;4957186;28;45353;-71
2023/06/08 03:59:38;;;;;;;;;15.50;14.50;;;;;;;;4957240;28;45379;-64
2023/06/08 04:02:03;;;;;;;;;15.75;14.75;;;;;;;;4956751;28;45275;-64
2023/06/08 04:04:31;;;;;;;;;16.75;15.50;;;;;;;;4957220;28;45372;-64
2023/06/08 04:07:00;;;;;;;;;20.50;19.25;;;;;;;;4953972;28;45529;-64
2023/06/08 04:09:26;;;;;;;;;17.75;14.25;;;;;;;;4937662;28;45547;-63
2023/06/08 04:11:51;;;;;;;;;14.25;13.50;;;;;;;;4950650;28;45451;-64
2023/06/08 04:14:16;;;;;;;;;11.50;11.50;;;;;;;;4956326;28;45656;-63
2023/06/08 04:16:42;;;;;;;;;15.25;14.50;;;;;;;;4956989;28;45337;-64
2023/06/08 04:19:09;;;;;;;;;13.00;11.50;;;;;;;;4956233;28;45397;-64
2023/06/08 04:21:35;;;;;;;;;16.25;16.25;;;;;;;;4956703;28;46275;-64
2023/06/08 04:24:00;;;;;;;;;19.25;18.25;;;;;;;;4956253;28;45727;-64
2023/06/08 04:26:25;;;;;;;;;17.25;14.50;;;;;;;;4953442;28;45535;-64
2023/06/08 04:28:50;;;;;;;;;19.00;19.00;;;;;;;;4947444;28;45430;-64
2023/06/08 04:31:16;;;;;;;;;16.00;15.75;;;;;;;;4947092;28;46064;-64
2023/06/08 04:33:41;;;;;;;;;13.75;12.50;;;;;;;;4936892;28;45322;-64
2023/06/08 04:36:06;;;;;;;;;16.25;15.50;;;;;;;;4951023;28;45424;-64
2023/06/08 04:38:31;;;;;;;;;14.00;14.00;;;;;;;;4956261;28;45406;-63
2023/06/08 04:40:56;;;;;;;;;22.25;18.75;;;;;;;;4956199;28;46122;-63
2023/06/08 04:43:25;;;;;;;;;22.25;20.75;;;;;;;;4939794;28;45465;-64
2023/06/08 04:46:00;;;;;;;;;19.75;19.75;;;;;;;;4956319;28;45332;-63
2023/06/08 04:48:26;;;;;;;;;24.00;18.00;;;;;;;;4955015;28;45496;-63
2023/06/08 04:50:51;;;;;;;;;21.50;17.75;;;;;;;;4955993;28;46270;-63
2023/06/08 04:53:16;;;;;;;;;19.00;17.75;;;;;;;;4956200;28;45456;-63
2023/06/08 04:55:44;;;;;;;;;19.75;19.25;;;;;;;;4956596;28;45474;-63
2023/06/08 04:58:10;;;;;;;;;21.75;20.00;;;;;;;;4956567;28;45441;-63
2023/06/08 05:00:35;;;;;;;;;21.50;20.50;;;;;;;;4950733;28;45680;-64
2023/06/08 05:03:00;;;;;;;;;23.75;20.50;;;;;;;;4937080;28;45480;-63
2023/06/08 05:05:25;;;;;;;;;26.75;22.00;;;;;;;;4939120;28;45492;-64
2023/06/08 05:07:50;;;;;;;;;23.00;21.75;;;;;;;;4955945;28;45441;-64
2023/06/08 05:10:16;;;;;;;;;24.50;21.25;;;;;;;;4954278;28;45360;-64
2023/06/08 05:12:41;;;;;;;;;24.50;18.75;;;;;;;;4955708;28;45278;-64
2023/06/08 05:15:06;;;;;;;;;20.75;19.00;;;;;;;;4956096;28;45614;-64
2023/06/08 05:17:31;;;;;;;;;24.50;19.00;;;;;;;;4955816;28;45294;-64
2023/06/08 05:19:57;;;;;;;;;20.75;19.50;;;;;;;;4954992;28;45345;-64
2023/06/08 05:22:22;;;;;;;;;21.00;19.00;;;;;;;;4955514;28;45394;-64
2023/06/08 05:24:47;;;;;;;;;21.00;21.00;;;;;;;;4955985;28;45217;-64
2023/06/08 05:27:12;;;;;;;;;27.75;26.75;;;;;;;;4955371;28;45314;-64
2023/06/08 05:29:38;;;;;;;;;23.50;20.75;;;;;;;;4956022;28;46853;-64
2023/06/08 05:32:04;;;;;;;;;25.75;23.50;;;;;;;;4956038;28;45374;-64
2023/06/08 05:34:29;;;;;;;;;28.00;21.00;;;;;;;;4955411;28;45360;-64
2023/06/08 05:36:55;;;;;;;;;25.75;24.75;;;;;;;;4955996;28;45320;-64
2023/06/08 05:39:20;;;;;;;;;26.75;26.50;;;;;;;;4954777;28;45584;-63
2023/06/08 05:41:45;;;;;;;;;27.25;25.50;;;;;;;;4950508;28;45220;-65
2023/06/08 05:44:10;;;;;;;;;25.25;23.25;;;;;;;;4935172;28;45388;-65
2023/06/08 05:46:35;;;;;;;;;26.75;26.00;;;;;;;;4936122;28;45596;-64
2023/06/08 05:49:01;;;;;;;;;26.25;22.00;;;;;;;;4934984;28;47158;-64
2023/06/08 05:51:26;;;;;;;;;23.75;22.00;;;;;;;;4955059;28;45406;-64
2023/06/08 05:53:51;;;;;;;;;26.00;21.00;;;;;;;;4954144;28;45392;-65
2023/06/08 05:56:16;;;;;;;;;26.25;24.25;;;;;;;;4955847;28;45365;-65
2023/06/08 05:58:41;;;;;;;;;25.50;23.00;;;;;;;;4955787;28;45685;-64
2023/06/08 06:01:07;;;;;;;;;26.25;23.50;;;;;;;;4955766;28;45361;-64
2023/06/08 06:03:32;;;;;;;;;21.50;19.50;;;;;;;;4936973;28;45297;-64
2023/06/08 06:06:00;;;;;;;;;30.75;25.00;;;;;;;;4936183;28;45388;-64
2023/06/08 06:08:26;;;;;;;;;32.00;27.50;;;;;;;;4935711;28;46022;-64
2023/06/08 06:10:51;;;;;;;;;22.00;19.25;;;;;;;;4950045;28;45343;-64
2023/06/08 06:13:16;;;;;;;;;29.75;27.00;;;;;;;;4955580;28;45350;-64
2023/06/08 06:15:41;;;;;;;;;34.50;27.50;;;;;;;;4955435;28;45498;-64
2023/06/08 06:18:06;;;;;;;;;34.50;30.75;;;;;;;;4955322;28;46377;-64
2023/06/08 06:20:32;;;;;;;;;29.25;26.00;;;;;;;;4955225;28;45441;-64
2023/06/08 06:22:57;;;;;;;;;30.50;29.00;;;;;;;;4957572;28;45394;-64
2023/06/08 06:25:22;;;;;;;;;29.50;27.50;;;;;;;;4958918;28;45363;-65
2023/06/08 06:27:47;;;;;;;;;23.50;21.75;;;;;;;;4957156;28;45453;-65
2023/06/08 06:30:13;;;;;;;;;25.00;24.00;;;;;;;;4958364;28;46068;-65
2023/06/08 06:32:38;;;;;;;;;26.00;26.00;;;;;;;;4957553;28;45508;-65
2023/06/08 06:35:04;;;;;;;;;27.75;27.00;;;;;;;;4958596;28;45453;-65
2023/06/08 06:37:34;;;;;;;;;27.75;25.00;;;;;;;;4958153;28;46885;-65
2023/06/08 06:39:59;;;;;;;;;21.25;19.75;;;;;;;;4958566;28;45418;-64
2023/06/08 06:42:25;;;;;;;;;29.25;25.75;;;;;;;;4947990;28;45569;-64
2023/06/08 06:44:50;;;;;;;;;24.50;19.25;;;;;;;;4939313;28;45457;-65
2023/06/08 06:47:15;;;;;;;;;25.50;21.75;;;;;;;;4938661;28;45977;-65
2023/06/08 06:49:40;;;;;;;;;29.25;25.75;;;;;;;;4938945;28;45508;-64
2023/06/08 06:52:06;;;;;;;;;26.25;24.75;;;;;;;;4938887;28;45672;-64
2023/06/08 06:54:32;;;;;;;;;27.00;25.25;;;;;;;;4950707;28;45243;-64
2023/06/08 06:56:57;;;;;;;;;40.25;29.00;;;;;;;;4953813;28;47210;-64
2023/06/08 06:59:23;;;;;;;;;22.25;21.00;;;;;;;;4937414;28;45379;-65
2023/06/08 07:01:48;;;;;;;;;26.00;23.75;;;;;;;;4938695;28;45306;-65
2023/06/08 07:04:15;;;;;;;;;30.50;27.00;;;;;;;;4938953;28;45552;-65
2023/06/08 07:06:42;;;;;;;;;30.25;27.75;;;;;;;;4951314;28;46162;-64
2023/06/08 07:09:08;;;;;;;;;35.00;30.50;;;;;;;;4957829;28;45619;-64
2023/06/08 07:11:33;;;;;;;;;21.00;21.00;;;;;;;;4958238;28;45448;-64
2023/06/08 07:14:00;;;;;;;;;28.00;25.25;;;;;;;;4957839;28;45437;-64
2023/06/08 07:16:25;;;;;;;;;29.25;28.75;;;;;;;;4945064;28;45570;-64
2023/06/08 07:18:51;;;;;;;;;31.75;31.25;;;;;;;;4958087;28;45532;-65
2023/06/08 07:21:19;;;;;;;;;26.00;24.50;;;;;;;;4957881;28;45492;-65
2023/06/08 07:23:45;;;;;;;;;29.50;26.50;;;;;;;;4957995;28;45432;-65
2023/06/08 07:26:11;;;;;;;;;25.00;23.00;;;;;;;;4957604;28;45538;-64
2023/06/08 07:28:37;;;;;;;;;34.00;28.75;;;;;;;;4957468;28;45477;-64
2023/06/08 07:31:02;;;;;;;;;28.50;25.25;;;;;;;;4956466;28;45407;-64
2023/06/08 07:33:28;;;;;;;;;33.75;28.25;;;;;;;;4957173;28;45505;-64
2023/06/08 07:35:53;;;;;;;;;23.75;22.75;;;;;;;;4957164;28;46192;-64
2023/06/08 07:38:19;;;;;;;;;27.25;23.00;;;;;;;;4957420;28;45377;-65
2023/06/08 07:40:44;;;;;;;;;24.75;24.75;;;;;;;;4958063;28;45401;-65
2023/06/08 07:43:09;;;;;;;;;28.00;26.75;;;;;;;;4939728;28;45583;-65
2023/06/08 07:45:34;;;;;;;;;21.75;19.75;;;;;;;;4938218;28;46606;-64
2023/06/08 07:47:59;;;;;;;;;23.50;22.25;;;;;;;;4950356;28;45499;-64
2023/06/08 07:50:25;;;;;;;;;27.50;24.25;;;;;;;;4957270;28;45424;-64
2023/06/08 07:52:50;;;;;;;;;21.50;20.00;;;;;;;;4956286;28;45485;-64
2023/06/08 07:55:15;;;;;;;;;27.50;25.25;;;;;;;;4955655;28;45574;-64
2023/06/08 07:57:40;;;;;;;;;32.75;29.50;;;;;;;;4955983;28;45334;-64
2023/06/08 08:00:06;;;;;;;;;24.25;22.25;;;;;;;;4957488;28;45446;-65
2023/06/08 08:02:31;;;;;;;;;30.50;27.75;;;;;;;;4957532;28;45203;-64
2023/06/08 08:04:56;;;;;;;;;27.25;24.75;;;;;;;;4957203;28;45367;-64
2023/06/08 08:07:22;;;;;;;;;29.75;26.75;;;;;;;;4956793;28;45276;-65
2023/06/08 08:09:47;;;;;;;;;32.75;31.00;;;;;;;;4957471;28;45345;-64
2023/06/08 08:12:12;;;;;;;;;27.00;25.50;;;;;;;;4957431;28;45496;-64
2023/06/08 08:14:37;;;;;;;;;29.75;23.00;;;;;;;;4955629;28;47816;-64
2023/06/08 08:17:03;;;;;;;;;29.25;25.25;;;;;;;;4956819;28;45346;-64
2023/06/08 08:19:28;;;;;;;;;25.00;21.25;;;;;;;;4956470;28;45417;-64
2023/06/08 08:21:53;;;;;;;;;27.25;25.75;;;;;;;;4956890;28;45432;-65
2023/06/08 08:24:19;;;;;;;;;30.75;27.75;;;;;;;;4956258;28;45332;-65
2023/06/08 08:26:44;;;;;;;;;24.00;23.50;;;;;;;;4956682;28;45561;-64
2023/06/08 08:29:09;;;;;;;;;26.25;23.75;;;;;;;;4956320;28;45459;-65
2023/06/08 08:31:35;;;;;;;;;25.00;23.50;;;;;;;;4957051;28;45254;-65
2023/06/08 08:34:00;;;;;;;;;28.25;24.75;;;;;;;;4956308;28;46928;-65
2023/06/08 08:36:25;;;;;;;;;22.50;21.50;;;;;;;;4956369;28;45318;-65
2023/06/08 08:38:50;;;;;;;;;28.25;27.00;;;;;;;;4956639;28;45235;-64
2023/06/08 08:41:19;;;;;;;;;26.25;22.25;;;;;;;;4949751;28;45334;-64
2023/06/08 08:44:01;;;;;;;;;24.50;22.25;;;;;;;;4955786;28;47058;-65
2023/06/08 08:46:27;;;;;;;;;21.50;19.25;;;;;;;;4956027;28;45441;-64
2023/06/08 08:48:57;;;;;;;;;27.50;23.75;;;;;;;;4956311;28;45575;-64
2023/06/08 08:51:22;;;;;;;;;26.50;23.50;;;;;;;;4956330;28;45653;-64
2023/06/08 08:53:48;;;;;;;;;19.50;19.25;;;;;;;;4955894;28;45646;-65
2023/06/08 08:56:16;;;;;;;;;27.00;24.25;;;;;;;;4956253;28;45370;-65
2023/06/08 08:58:42;;;;;;;;;26.25;21.75;;;;;;;;4956629;28;45385;-64
2023/06/08 09:01:08;;;;;;;;;22.25;20.50;;;;;;;;4956214;28;45488;-64
2023/06/08 09:03:34;;;;;;;;;20.00;17.75;;;;;;;;4956219;28;47448;-64
2023/06/08 09:05:59;;;;;;;;;22.00;18.25;;;;;;;;4955886;28;45460;-64
2023/06/08 09:08:25;;;;;;;;;24.75;21.00;;;;;;;;4956290;28;45491;-64
2023/06/08 09:11:09;;;;;;;;;19.75;18.25;;;;;;;;4941995;28;45334;-64
2023/06/08 09:13:34;;;;;;;;;17.00;16.00;;;;;;;;4936964;28;45475;-64
2023/06/08 09:16:14;;;;;;;;;20.75;20.50;;;;;;;;4936516;28;45488;-65
2023/06/08 09:18:41;;;;;;;;;23.00;21.75;;;;;;;;4950305;28;45470;-64
2023/06/08 09:21:19;;;;;;;;;22.00;20.00;;;;;;;;4953097;28;45307;-64
2023/06/08 09:23:45;;;;;;;;;21.00;21.00;;;;;;;;4935353;28;47196;-64
2023/06/08 09:26:11;;;;;;;;;21.25;21.25;;;;;;;;4936812;28;45440;-65
2023/06/08 09:28:37;;;;;;;;;18.50;17.00;;;;;;;;4941971;28;45528;-64
2023/06/08 09:31:08;;;;;;;;;17.25;16.75;;;;;;;;4950244;28;45461;-65
2023/06/08 09:33:33;;;;;;;;;23.25;19.75;;;;;;;;4944875;28;46183;-64
2023/06/08 09:35:58;;;;;;;;;16.00;15.50;;;;;;;;4955820;28;45559;-64
2023/06/08 09:38:28;;;;;;;;;16.25;15.25;;;;;;;;4956279;28;45663;-65
2023/06/08 09:41:11;;;;;;;;;19.25;16.25;;;;;;;;4954765;28;45391;-65
2023/06/08 09:43:36;;;;;;;;;19.50;18.75;;;;;;;;4954549;28;45507;-65
2023/06/08 09:46:02;;;;;;;;;17.00;17.00;;;;;;;;4955558;28;45608;-65
2023/06/08 09:48:27;;;;;;;;;22.25;20.25;;;;;;;;4954619;28;45384;-65
2023/06/08 09:51:02;;;;;;;;;18.25;18.25;;;;;;;;4955756;28;45235;-65
2023/06/08 09:53:28;;;;;;;;;18.00;16.50;;;;;;;;4946085;28;45611;-65
2023/06/08 09:55:54;;;;;;;;;19.75;16.75;;;;;;;;4946449;28;45438;-65
2023/06/08 09:58:22;;;;;;;;;15.00;14.75;;;;;;;;4948227;28;45286;-65
2023/06/08 10:00:48;;;;;;;;;13.25;13.25;;;;;;;;4947504;28;45426;-65
2023/06/08 10:03:16;;;;;;;;;10.75;10.75;;;;;;;;4939386;28;45599;-65
2023/06/08 10:05:46;;;;;;;;;18.25;16.25;;;;;;;;4944424;28;45406;-65
2023/06/08 10:08:14;;;;;;;;;16.00;14.50;;;;;;;;4958980;28;45435;-65
2023/06/08 10:10:39;;;;;;;;;16.50;13.75;;;;;;;;4958920;28;45374;-65
2023/06/08 10:13:05;;;;;;;;;16.50;15.50;;;;;;;;4958298;28;45460;-65
2023/06/08 10:15:31;;;;;;;;;16.00;16.00;;;;;;;;4958488;28;45313;-65
2023/06/08 10:17:57;;;;;;;;;15.50;15.50;;;;;;;;4956673;28;45512;-65
2023/06/08 10:20:23;;;;;;;;;19.75;18.75;;;;;;;;4958307;28;45547;-66
2023/06/08 10:22:48;;;;;;;;;15.00;13.50;;;;;;;;4957877;28;46680;-65
2023/06/08 10:25:16;;;;;;;;;14.50;14.50;;;;;;;;4958499;28;45473;-65
2023/06/08 10:27:51;;;;;;;;;12.50;11.50;;;;;;;;4958717;28;45727;-65
2023/06/08 10:30:30;;;;;;;;;11.50;9.75;;;;;;;;4958436;28;45437;-65
2023/06/08 10:33:08;;;;;;;;;15.75;14.50;;;;;;;;4958360;28;45737;-65
2023/06/08 10:35:33;;;;;;;;;17.50;16.00;;;;;;;;4958541;28;45516;-65
2023/06/08 10:38:07;;;;;;;;;15.25;14.75;;;;;;;;4958525;28;45321;-65
2023/06/08 10:40:40;;;;;;;;;13.25;13.25;;;;;;;;4958829;28;45346;-65
2023/06/08 10:43:07;;;;;;;;;13.25;12.50;;;;;;;;4942002;28;47501;-65
2023/06/08 10:45:35;;;;;;;;;17.50;15.25;;;;;;;;4939206;28;45470;-64
2023/06/08 10:48:01;;;;;;;;;13.75;12.75;;;;;;;;4939097;28;45528;-65
2023/06/08 10:50:30;;;;;;;;;12.75;12.75;;;;;;;;4937581;28;45578;-64
2023/06/08 10:52:58;;;;;;;;;13.25;13.00;;;;;;;;4945707;28;46561;-64
2023/06/08 10:55:25;;;;;;;;;14.50;14.50;;;;;;;;4947020;28;45333;-64
2023/06/08 10:57:52;;;;;;;;;16.25;15.25;;;;;;;;4947996;28;45412;-64
2023/06/08 11:00:27;;;;;;;;;16.75;16.25;;;;;;;;4949115;28;45505;-65
2023/06/08 11:02:52;;;;;;;;;16.75;15.50;;;;;;;;4946194;28;46544;-65
2023/06/08 11:05:19;;;;;;;;;13.75;13.75;;;;;;;;4938431;28;45501;-64
2023/06/08 11:07:45;;;;;;;;;14.50;14.00;;;;;;;;4938172;28;45427;-64
2023/06/08 11:10:11;;;;;;;;;13.00;13.00;;;;;;;;4938841;28;45391;-65
2023/06/08 11:12:36;;;;;;;;;12.25;12.25;;;;;;;;4938517;28;45493;-65
2023/06/08 11:15:01;;;;;;;;;14.75;14.25;;;;;;;;4955806;28;45465;-64
2023/06/08 11:17:27;;;;;;;;;19.75;18.50;;;;;;;;4946794;28;45660;-65
2023/06/08 11:19:52;;;;;;;;;16.25;14.00;;;;;;;;4939795;28;45489;-64
2023/06/08 11:22:17;;;;;;;;;14.25;14.25;;;;;;;;4953159;28;47083;-65
2023/06/08 11:24:43;;;;;;;;;13.00;11.50;;;;;;;;4941109;28;45327;-64
2023/06/08 11:27:14;;;;;;;;;14.50;14.50;;;;;;;;4954551;28;45259;-64
2023/06/08 11:29:39;;;;;;;;;15.50;13.00;;;;;;;;4946373;28;45512;-64
2023/06/08 11:32:11;;;;;;;;;15.50;15.50;;;;;;;;4950645;28;47218;-64
2023/06/08 11:34:37;;;;;;;;;16.00;14.25;;;;;;;;4941139;28;45829;-64
2023/06/08 11:37:03;;;;;;;;;16.75;13.75;;;;;;;;4951871;28;45496;-65
2023/06/08 11:39:32;;;;;;;;;12.75;12.75;;;;;;;;4945426;28;45402;-64
2023/06/08 11:41:58;;;;;;;;;14.50;13.50;;;;;;;;4933844;28;48691;-64
2023/06/08 11:44:25;;;;;;;;;11.25;10.25;;;;;;;;4941367;28;45291;-65
2023/06/08 11:46:51;;;;;;;;;17.00;16.00;;;;;;;;4952571;28;45414;-64
2023/06/08 11:49:16;;;;;;;;;15.00;13.75;;;;;;;;4943621;28;45322;-64
2023/06/08 11:51:50;;;;;;;;;15.75;15.75;;;;;;;;4955883;28;47756;-64
2023/06/08 11:54:16;;;;;;;;;12.25;12.25;;;;;;;;4941851;28;45485;-64
2023/06/08 11:56:45;;;;;;;;;11.25;11.25;;;;;;;;4956040;28;45391;-64
2023/06/08 11:59:11;;;;;;;;;14.00;13.00;;;;;;;;4949066;28;45534;-64
2023/06/08 12:01:37;;;;;;;;;15.00;12.25;;;;;;;;4946045;28;47234;-64
2023/06/08 12:04:11;;;;;;;;;11.25;11.25;;;;;;;;4955776;28;45390;-64
2023/06/08 12:06:37;;;;;;;;;13.00;12.00;;;;;;;;4947070;28;45328;-63
2023/06/08 12:09:06;;;;;;;;;13.75;13.75;;;;;;;;4950784;28;45396;-64
2023/06/08 12:11:34;;;;;;;;;13.50;13.50;;;;;;;;4946461;28;46255;-63
2023/06/08 12:13:59;;;;;;;;;14.00;13.75;;;;;;;;4943554;28;45767;-63
2023/06/08 12:16:25;;;;;;;;;11.25;11.25;;;;;;;;4940291;28;45438;-66
2023/06/08 12:18:50;;;;;;;;;13.00;13.00;;;;;;;;4937365;28;45427;-64
2023/06/08 12:21:15;;;;;;;;;14.25;12.50;;;;;;;;4940661;28;46205;-63
2023/06/08 12:23:41;;;;;;;;;12.25;12.25;;;;;;;;4956453;28;45386;-64
2023/06/08 12:26:06;;;;;;;;;13.00;10.75;;;;;;;;4956190;28;45468;-64
2023/06/08 12:28:32;;;;;;;;;13.75;13.00;;;;;;;;4956317;28;45390;-66
2023/06/08 12:31:00;;;;;;;;;14.00;14.00;;;;;;;;4956471;28;46293;-66
2023/06/08 12:33:26;;;;;;;;;12.00;11.50;;;;;;;;4954992;28;45294;-64
2023/06/08 12:35:51;;;;;;;;;13.50;13.50;;;;;;;;4954917;28;45352;-64
2023/06/08 12:38:23;;;;;;;;;12.75;12.75;;;;;;;;4956731;28;45598;-64
2023/06/08 12:40:50;;;;;;;;;13.75;13.50;;;;;;;;4956025;28;45556;-65
2023/06/08 12:43:19;;;;;;;;;13.50;13.50;;;;;;;;4938834;28;45331;-65
2023/06/08 12:45:45;;;;;;;;;14.50;14.25;;;;;;;;4944328;28;45345;-65
2023/06/08 12:48:10;;;;;;;;;14.50;14.00;;;;;;;;4956610;28;45486;-64
2023/06/08 12:50:36;;;;;;;;;12.00;11.00;;;;;;;;4956257;28;46553;-64
2023/06/08 12:53:02;;;;;;;;;13.25;13.00;;;;;;;;4955097;28;45489;-64
2023/06/08 12:55:27;;;;;;;;;11.00;11.00;;;;;;;;4955350;28;45425;-64
2023/06/08 12:57:52;;;;;;;;;12.00;10.00;;;;;;;;4956405;28;45319;-65
2023/06/08 13:00:21;;;;;;;;;11.25;11.25;;;;;;;;4956490;28;46217;-65
2023/06/08 13:02:47;;;;;;;;;10.00;10.00;;;;;;;;4956388;28;45425;-65
2023/06/08 13:05:12;;;;;;;;;11.00;11.00;;;;;;;;4956289;28;45561;-64
2023/06/08 13:07:37;;;;;;;;;12.00;12.00;;;;;;;;4956448;28;45376;-64
2023/06/08 13:10:03;;;;;;;;;10.50;10.50;;;;;;;;4955869;28;47132;-64
2023/06/08 13:12:28;;;;;;;;;13.50;11.75;;;;;;;;4956394;28;45534;-64
2023/06/08 13:14:56;;;;;;;;;11.50;11.25;;;;;;;;4955155;28;45429;-64
2023/06/08 13:17:24;;;;;;;;;12.75;11.25;;;;;;;;4956135;28;45763;-64
2023/06/08 13:19:49;;;;;;;;;14.50;13.00;;;;;;;;4955903;28;45524;-65
2023/06/08 13:22:15;;;;;;;;;9.50;9.50;;;;;;;;4955795;28;45402;-64
2023/06/08 13:24:41;;;;;;;;;12.50;11.75;;;;;;;;4956225;28;45501;-64
2023/06/08 13:27:06;;;;;;;;;12.25;11.75;;;;;;;;4954572;28;45572;-64
2023/06/08 13:29:31;;;;;;;;;11.00;11.00;;;;;;;;4955689;28;46241;-64
2023/06/08 13:31:57;;;;;;;;;11.00;11.00;;;;;;;;4954262;28;45489;-65
2023/06/08 13:34:22;;;;;;;;;17.50;13.25;;;;;;;;4955819;28;45450;-65
2023/06/08 13:36:47;;;;;;;;;10.00;10.00;;;;;;;;4955844;28;45429;-64
2023/06/08 13:39:12;;;;;;;;;12.25;11.25;;;;;;;;4955713;28;45375;-65
2023/06/08 13:41:39;;;;;;;;;15.00;15.00;;;;;;;;4951811;28;45428;-64
2023/06/08 13:44:05;;;;;;;;;14.00;12.75;;;;;;;;4936773;28;45465;-65
2023/06/08 13:46:30;;;;;;;;;13.50;12.25;;;;;;;;4949569;28;45338;-65
2023/06/08 13:48:56;;;;;;;;;9.50;9.25;;;;;;;;4955627;28;46389;-64
2023/06/08 13:51:21;;;;;;;;;14.00;12.75;;;;;;;;4955641;28;45393;-65
2023/06/08 13:53:49;;;;;;;;;10.75;10.00;;;;;;;;4954923;28;45859;-64
2023/06/08 13:56:14;;;;;;;;;13.25;13.00;;;;;;;;4954975;28;45387;-64
2023/06/08 13:58:39;;;;;;;;;13.75;13.25;;;;;;;;4955146;28;46853;-64
2023/06/08 14:01:05;;;;;;;;;12.75;11.75;;;;;;;;4955600;28;45251;-64
2023/06/08 14:03:30;;;;;;;;;14.25;12.75;;;;;;;;4955604;28;45318;-64
2023/06/08 14:05:56;;;;;;;;;11.25;11.25;;;;;;;;4955459;28;45326;-63
2023/06/08 14:08:22;;;;;;;;;13.25;11.25;;;;;;;;4955230;28;47047;-63
2023/06/08 14:10:47;;;;;;;;;10.25;10.25;;;;;;;;4955080;28;45395;-64
2023/06/08 14:13:12;;;;;;;;;12.50;12.25;;;;;;;;4955450;28;45409;-63